createdAt,value
2018-09-02T00:00:08.933Z,0.00
2018-09-02T00:01:08.901Z,0.00
2018-09-02T00:02:08.890Z,0.00
2018-09-02T00:03:08.901Z,0.00
2018-09-02T00:04:08.866Z,0.00
2018-09-02T00:05:08.854Z,0.00
2018-09-02T00:06:08.844Z,0.00
2018-09-02T00:07:08.832Z,0.00
2018-09-02T00:08:08.842Z,0.00
2018-09-02T00:09:08.810Z,0.00
2018-09-02T00:10:08.798Z,0.00
2018-09-02T00:11:08.828Z,0.00
2018-09-02T00:12:08.776Z,0.00
2018-09-02T00:13:08.764Z,0.00
2018-09-02T00:14:08.753Z,0.00
2018-09-02T00:15:08.742Z,0.00
2018-09-02T00:16:08.751Z,0.00
2018-09-02T00:17:08.721Z,0.00
2018-09-02T00:18:08.708Z,0.00
2018-09-02T00:19:08.717Z,0.00
2018-09-02T00:20:08.686Z,0.00
2018-09-02T00:21:08.676Z,0.00
2018-09-02T00:22:08.663Z,0.00
2018-09-02T00:23:08.691Z,0.00
2018-09-02T00:24:08.641Z,0.00
2018-09-02T00:25:08.629Z,0.00
2018-09-02T00:26:08.619Z,0.00
2018-09-02T00:27:08.607Z,0.00
2018-09-02T00:28:08.617Z,0.00
2018-09-02T00:29:08.589Z,0.00
2018-09-02T00:30:08.573Z,0.00
2018-09-02T00:31:08.583Z,0.00
2018-09-02T00:32:08.552Z,0.00
2018-09-02T00:33:08.563Z,0.00
2018-09-02T00:34:08.549Z,0.00
2018-09-02T00:35:08.524Z,0.00
2018-09-02T00:36:08.505Z,0.00
2018-09-02T00:37:08.495Z,0.00
2018-09-02T00:38:08.505Z,0.00
2018-09-02T00:39:08.472Z,0.00
2018-09-02T00:40:08.461Z,0.00
2018-09-02T00:41:08.449Z,0.00
2018-09-02T00:42:08.459Z,0.00
2018-09-02T00:43:08.426Z,0.00
2018-09-02T00:44:08.416Z,0.00
2018-09-02T00:45:08.410Z,0.00
2018-09-02T00:46:08.392Z,0.00
2018-09-02T00:47:08.411Z,0.00
2018-09-02T00:48:08.370Z,0.00
2018-09-02T00:49:08.358Z,0.00
2018-09-02T00:50:08.355Z,0.00
2018-09-02T00:51:08.337Z,0.00
2018-09-02T00:52:08.345Z,0.00
2018-09-02T00:53:08.313Z,0.00
2018-09-02T00:54:08.303Z,0.00
2018-09-02T00:55:08.291Z,0.00
2018-09-02T00:56:08.279Z,0.00
2018-09-02T00:57:08.294Z,0.00
2018-09-02T00:58:08.256Z,0.00
2018-09-02T00:59:08.267Z,0.00
2018-09-02T01:00:08.234Z,0.00
2018-09-02T01:01:08.222Z,0.00
2018-09-02T01:02:08.232Z,0.00
2018-09-02T01:03:08.201Z,0.00
2018-09-02T01:04:08.188Z,0.00
2018-09-02T01:05:08.177Z,0.00
2018-09-02T01:06:08.166Z,0.00
2018-09-02T01:07:08.178Z,0.00
2018-09-02T01:08:08.143Z,0.00
2018-09-02T01:09:08.152Z,0.00
2018-09-02T01:10:08.124Z,0.00
2018-09-02T01:11:08.109Z,0.00
2018-09-02T01:12:08.098Z,0.00
2018-09-02T01:13:08.087Z,0.00
2018-09-02T01:14:08.091Z,0.00
2018-09-02T01:15:08.065Z,0.00
2018-09-02T01:16:08.054Z,0.00
2018-09-02T01:17:08.041Z,0.00
2018-09-02T01:18:08.051Z,0.00
2018-09-02T01:19:08.040Z,0.00
2018-09-02T01:20:08.007Z,0.00
2018-09-02T01:21:07.997Z,0.00
2018-09-02T01:22:07.984Z,0.00
2018-09-02T01:23:08.024Z,0.00
2018-09-02T01:24:07.993Z,0.00
2018-09-02T01:25:07.955Z,0.00
2018-09-02T01:26:07.939Z,0.00
2018-09-02T01:27:07.928Z,0.00
2018-09-02T01:28:07.917Z,0.00
2018-09-02T01:29:07.930Z,0.00
2018-09-02T01:30:07.894Z,0.00
2018-09-02T01:31:07.883Z,0.00
2018-09-02T01:32:07.874Z,0.00
2018-09-02T01:33:07.882Z,0.00
2018-09-02T01:34:07.863Z,0.00
2018-09-02T01:35:07.858Z,0.00
2018-09-02T01:36:07.826Z,0.00
2018-09-02T01:37:07.815Z,0.00
2018-09-02T01:38:07.804Z,0.00
2018-09-02T01:39:07.792Z,0.00
2018-09-02T01:40:07.810Z,0.00
2018-09-02T01:41:07.770Z,0.00
2018-09-02T01:42:07.758Z,0.00
2018-09-02T01:43:07.805Z,0.00
2018-09-02T01:44:07.736Z,0.00
2018-09-02T01:45:07.745Z,0.00
2018-09-02T01:46:07.712Z,0.00
2018-09-02T01:47:07.702Z,0.00
2018-09-02T01:48:07.712Z,0.00
2018-09-02T01:49:07.680Z,0.00
2018-09-02T01:50:07.666Z,0.00
2018-09-02T01:51:07.657Z,0.00
2018-09-02T01:52:07.665Z,0.00
2018-09-02T01:53:07.654Z,0.00
2018-09-02T01:54:07.622Z,0.00
2018-09-02T01:55:07.610Z,0.00
2018-09-02T01:56:07.599Z,0.00
2018-09-02T01:57:07.612Z,0.00
2018-09-02T01:58:07.576Z,0.00
2018-09-02T01:59:07.586Z,0.00
2018-09-02T02:00:07.555Z,0.00
2018-09-02T02:01:07.544Z,0.00
2018-09-02T02:02:07.532Z,0.00
2018-09-02T02:03:07.521Z,0.00
2018-09-02T02:04:07.539Z,0.00
2018-09-02T02:05:07.498Z,0.00
2018-09-02T02:06:07.486Z,0.00
2018-09-02T02:07:07.475Z,0.00
2018-09-02T02:08:07.464Z,0.00
2018-09-02T02:09:07.473Z,0.00
2018-09-02T02:10:07.441Z,0.00
2018-09-02T02:11:07.430Z,0.00
2018-09-02T02:12:07.444Z,0.00
2018-09-02T02:13:07.428Z,0.00
2018-09-02T02:14:07.417Z,0.00
2018-09-02T02:15:07.385Z,0.00
2018-09-02T02:16:07.385Z,0.00
2018-09-02T02:17:07.365Z,0.00
2018-09-02T02:18:07.350Z,0.00
2018-09-02T02:19:07.363Z,0.00
2018-09-02T02:20:07.331Z,0.00
2018-09-02T02:21:07.337Z,0.00
2018-09-02T02:22:07.305Z,0.00
2018-09-02T02:23:07.316Z,0.00
2018-09-02T02:24:07.283Z,0.00
2018-09-02T02:25:07.274Z,0.00
2018-09-02T02:26:07.260Z,0.00
2018-09-02T02:27:07.251Z,0.00
2018-09-02T02:28:07.259Z,0.00
2018-09-02T02:29:07.226Z,0.00
2018-09-02T02:30:07.218Z,0.00
2018-09-02T02:31:07.207Z,0.00
2018-09-02T02:32:07.199Z,0.00
2018-09-02T02:33:07.203Z,0.00
2018-09-02T02:34:07.169Z,0.00
2018-09-02T02:35:07.161Z,0.00
2018-09-02T02:36:07.147Z,0.00
2018-09-02T02:37:07.135Z,0.00
2018-09-02T02:38:07.145Z,0.00
2018-09-02T02:39:07.113Z,0.00
2018-09-02T02:40:07.122Z,0.00
2018-09-02T02:41:07.091Z,0.00
2018-09-02T02:42:07.080Z,0.00
2018-09-02T02:43:07.092Z,0.00
2018-09-02T02:44:07.056Z,0.00
2018-09-02T02:45:07.074Z,0.00
2018-09-02T02:46:07.033Z,0.00
2018-09-02T02:47:07.021Z,0.00
2018-09-02T02:48:07.010Z,0.00
2018-09-02T02:49:07.000Z,0.00
2018-09-02T02:50:07.011Z,0.00
2018-09-02T02:51:06.976Z,0.00
2018-09-02T02:52:06.965Z,0.00
2018-09-02T02:53:06.985Z,0.00
2018-09-02T02:54:06.945Z,0.00
2018-09-02T02:55:06.932Z,0.00
2018-09-02T02:56:06.919Z,0.00
2018-09-02T02:57:06.909Z,0.00
2018-09-02T02:58:06.919Z,0.00
2018-09-02T02:59:06.886Z,0.00
2018-09-02T03:00:06.875Z,0.00
2018-09-02T03:01:06.885Z,0.00
2018-09-02T03:02:06.852Z,0.00
2018-09-02T03:03:06.840Z,0.00
2018-09-02T03:04:06.829Z,0.00
2018-09-02T03:05:06.840Z,0.00
2018-09-02T03:06:06.806Z,0.00
2018-09-02T03:07:06.796Z,0.00
2018-09-02T03:08:06.785Z,0.00
2018-09-02T03:09:06.773Z,0.00
2018-09-02T03:10:06.785Z,0.00
2018-09-02T03:11:06.817Z,0.00
2018-09-02T03:12:06.742Z,0.00
2018-09-02T03:13:06.727Z,0.00
2018-09-02T03:14:06.717Z,0.00
2018-09-02T03:15:06.706Z,0.00
2018-09-02T03:16:06.717Z,0.00
2018-09-02T03:17:06.705Z,0.00
2018-09-02T03:18:06.672Z,0.00
2018-09-02T03:19:06.661Z,0.00
2018-09-02T03:20:06.651Z,0.00
2018-09-02T03:21:06.638Z,0.00
2018-09-02T03:22:06.651Z,0.00
2018-09-02T03:23:06.617Z,0.00
2018-09-02T03:24:06.605Z,0.00
2018-09-02T03:25:06.610Z,0.00
2018-09-02T03:26:06.606Z,0.00
2018-09-02T03:27:06.591Z,0.00
2018-09-02T03:28:06.560Z,0.00
2018-09-02T03:29:06.547Z,0.00
2018-09-02T03:30:06.537Z,0.00
2018-09-02T03:31:06.536Z,0.00
2018-09-02T03:32:06.536Z,0.00
2018-09-02T03:33:06.501Z,0.00
2018-09-02T03:34:06.494Z,0.00
2018-09-02T03:35:06.479Z,0.00
2018-09-02T03:36:06.468Z,0.00
2018-09-02T03:37:06.488Z,0.00
2018-09-02T03:38:06.446Z,0.00
2018-09-02T03:39:06.435Z,0.00
2018-09-02T03:40:06.422Z,0.00
2018-09-02T03:41:06.415Z,0.00
2018-09-02T03:42:06.420Z,0.00
2018-09-02T03:43:06.388Z,0.00
2018-09-02T03:44:06.398Z,0.00
2018-09-02T03:45:06.367Z,0.00
2018-09-02T03:46:06.354Z,0.00
2018-09-02T03:47:06.343Z,0.00
2018-09-02T03:48:06.355Z,0.00
2018-09-02T03:49:06.343Z,0.00
2018-09-02T03:50:06.311Z,0.00
2018-09-02T03:51:06.298Z,0.00
2018-09-02T03:52:06.293Z,0.00
2018-09-02T03:53:06.275Z,0.00
2018-09-02T03:54:06.287Z,0.00
2018-09-02T03:55:06.278Z,0.00
2018-09-02T03:56:06.241Z,0.00
2018-09-02T03:57:06.230Z,0.00
2018-09-02T03:58:06.219Z,0.00
2018-09-02T03:59:06.228Z,0.00
2018-09-02T04:00:06.218Z,0.00
2018-09-02T04:01:06.185Z,0.00
2018-09-02T04:02:06.195Z,0.00
2018-09-02T04:03:06.162Z,0.00
2018-09-02T04:04:06.152Z,0.00
2018-09-02T04:05:06.162Z,4.00
2018-09-02T04:06:06.131Z,4.00
2018-09-02T04:07:06.139Z,0.00
2018-09-02T04:08:06.106Z,4.00
2018-09-02T04:09:06.095Z,4.00
2018-09-02T04:10:06.083Z,4.00
2018-09-02T04:11:06.073Z,4.00
2018-09-02T04:12:06.083Z,4.00
2018-09-02T04:13:06.053Z,8.00
2018-09-02T04:14:06.039Z,8.00
2018-09-02T04:15:06.027Z,8.00
2018-09-02T04:16:06.037Z,12.00
2018-09-02T04:17:06.004Z,12.00
2018-09-02T04:18:05.992Z,16.00
2018-09-02T04:19:05.982Z,16.00
2018-09-02T04:20:05.974Z,20.00
2018-09-02T04:21:05.982Z,20.00
2018-09-02T04:22:05.947Z,24.00
2018-09-02T04:23:05.937Z,32.00
2018-09-02T04:24:05.925Z,36.00
2018-09-02T04:25:05.936Z,36.00
2018-09-02T04:26:05.904Z,40.00
2018-09-02T04:27:05.892Z,48.00
2018-09-02T04:28:05.999Z,52.00
2018-09-02T04:29:05.872Z,56.00
2018-09-02T04:30:05.860Z,64.00
2018-09-02T04:31:05.845Z,72.00
2018-09-02T04:32:05.835Z,76.00
2018-09-02T04:33:05.854Z,88.00
2018-09-02T04:34:05.812Z,96.00
2018-09-02T04:35:05.802Z,104.00
2018-09-02T04:36:05.791Z,112.00
2018-09-02T04:37:05.781Z,124.00
2018-09-02T04:38:05.790Z,136.00
2018-09-02T04:39:05.782Z,148.00
2018-09-02T04:40:05.754Z,164.00
2018-09-02T04:41:05.735Z,180.00
2018-09-02T04:42:05.724Z,192.00
2018-09-02T04:43:05.713Z,212.00
2018-09-02T04:44:05.723Z,228.00
2018-09-02T04:45:05.720Z,244.00
2018-09-02T04:46:05.678Z,260.00
2018-09-02T04:47:05.669Z,276.00
2018-09-02T04:48:05.656Z,292.00
2018-09-02T04:49:05.674Z,308.00
2018-09-02T04:50:05.633Z,320.00
2018-09-02T04:51:05.624Z,340.00
2018-09-02T04:52:05.615Z,356.00
2018-09-02T04:53:05.601Z,372.00
2018-09-02T04:54:05.627Z,388.00
2018-09-02T04:55:05.577Z,408.00
2018-09-02T04:56:05.564Z,424.00
2018-09-02T04:57:05.554Z,432.00
2018-09-02T04:58:05.543Z,452.00
2018-09-02T04:59:05.554Z,468.00
2018-09-02T05:00:05.526Z,488.00
2018-09-02T05:01:05.508Z,508.00
2018-09-02T05:02:05.519Z,528.00
2018-09-02T05:03:05.486Z,544.00
2018-09-02T05:04:05.475Z,560.00
2018-09-02T05:05:05.485Z,572.00
2018-09-02T05:06:05.452Z,588.00
2018-09-02T05:07:05.444Z,596.00
2018-09-02T05:08:05.430Z,608.00
2018-09-02T05:09:05.419Z,620.00
2018-09-02T05:10:05.435Z,632.00
2018-09-02T05:11:05.396Z,640.00
2018-09-02T05:12:05.388Z,648.00
2018-09-02T05:13:05.373Z,660.00
2018-09-02T05:14:05.393Z,672.00
2018-09-02T05:15:05.354Z,684.00
2018-09-02T05:16:05.367Z,696.00
2018-09-02T05:17:05.331Z,708.00
2018-09-02T05:18:05.316Z,716.00
2018-09-02T05:19:05.305Z,728.00
2018-09-02T05:20:05.294Z,736.00
2018-09-02T05:21:05.304Z,748.00
2018-09-02T05:22:05.293Z,764.00
2018-09-02T05:23:05.264Z,780.00
2018-09-02T05:24:05.248Z,800.00
2018-09-02T05:25:05.237Z,816.00
2018-09-02T05:26:05.227Z,824.00
2018-09-02T05:27:05.236Z,848.00
2018-09-02T05:28:05.207Z,880.00
2018-09-02T05:29:05.192Z,932.00
2018-09-02T05:30:05.183Z,984.00
2018-09-02T05:31:05.170Z,1012.00
2018-09-02T05:32:05.185Z,1040.00
2018-09-02T05:33:05.148Z,1076.00
2018-09-02T05:34:05.137Z,1128.00
2018-09-02T05:35:05.125Z,1184.00
2018-09-02T05:36:05.114Z,1212.00
2018-09-02T05:37:05.282Z,1224.00
2018-09-02T05:38:05.092Z,1244.00
2018-09-02T05:39:05.079Z,1272.00
2018-09-02T05:40:05.073Z,1308.00
2018-09-02T05:41:05.060Z,1332.00
2018-09-02T05:42:05.077Z,1356.00
2018-09-02T05:43:05.037Z,1368.00
2018-09-02T05:44:05.100Z,1384.00
2018-09-02T05:45:05.011Z,1392.00
2018-09-02T05:46:05.001Z,1408.00
2018-09-02T05:47:05.021Z,1428.00
2018-09-02T05:48:04.978Z,1428.00
2018-09-02T05:49:04.967Z,1424.00
2018-09-02T05:50:04.963Z,1412.00
2018-09-02T05:51:04.945Z,1376.00
2018-09-02T05:52:04.955Z,1352.00
2018-09-02T05:53:04.921Z,1356.00
2018-09-02T05:54:04.910Z,1376.00
2018-09-02T05:55:04.899Z,1392.00
2018-09-02T05:56:04.888Z,1408.00
2018-09-02T05:57:04.910Z,1440.00
2018-09-02T05:58:04.886Z,1468.00
2018-09-02T05:59:04.853Z,1516.00
2018-09-02T06:00:04.842Z,1568.00
2018-09-02T06:01:04.831Z,1620.00
2018-09-02T06:02:04.822Z,1668.00
2018-09-02T06:03:04.839Z,1704.00
2018-09-02T06:04:04.797Z,1704.00
2018-09-02T06:05:04.789Z,1692.00
2018-09-02T06:06:04.775Z,1776.00
2018-09-02T06:07:04.764Z,1904.00
2018-09-02T06:08:04.782Z,2004.00
2018-09-02T06:09:04.742Z,2096.00
2018-09-02T06:10:04.729Z,2184.00
2018-09-02T06:11:04.718Z,2276.00
2018-09-02T06:12:04.709Z,2340.00
2018-09-02T06:13:04.726Z,2364.00
2018-09-02T06:14:04.685Z,2388.00
2018-09-02T06:15:04.674Z,2408.00
2018-09-02T06:16:04.663Z,2416.00
2018-09-02T06:17:04.652Z,2436.00
2018-09-02T06:18:04.662Z,2440.00
2018-09-02T06:19:04.630Z,2436.00
2018-09-02T06:20:04.618Z,2372.00
2018-09-02T06:21:04.627Z,2268.00
2018-09-02T06:22:04.594Z,2092.00
2018-09-02T06:23:04.603Z,1908.00
2018-09-02T06:24:04.572Z,1812.00
2018-09-02T06:25:04.561Z,1756.00
2018-09-02T06:26:04.576Z,1716.00
2018-09-02T06:27:04.540Z,1700.00
2018-09-02T06:28:04.527Z,1668.00
2018-09-02T06:29:04.515Z,1676.00
2018-09-02T06:30:04.512Z,1672.00
2018-09-02T06:31:04.523Z,1668.00
2018-09-02T06:32:04.481Z,1664.00
2018-09-02T06:33:04.470Z,1484.00
2018-09-02T06:34:04.459Z,1640.00
2018-09-02T06:35:04.461Z,1632.00
2018-09-02T06:36:04.439Z,1640.00
2018-09-02T06:37:04.424Z,1640.00
2018-09-02T06:38:04.416Z,1644.00
2018-09-02T06:39:04.404Z,1568.00
2018-09-02T06:40:04.411Z,1508.00
2018-09-02T06:41:04.381Z,1480.00
2018-09-02T06:42:04.368Z,1404.00
2018-09-02T06:43:04.377Z,1448.00
2018-09-02T06:44:04.345Z,1668.00
2018-09-02T06:45:04.334Z,1688.00
2018-09-02T06:46:04.361Z,1568.00
2018-09-02T06:47:04.311Z,1444.00
2018-09-02T06:48:04.301Z,1420.00
2018-09-02T06:49:04.298Z,1360.00
2018-09-02T06:50:04.280Z,1344.00
2018-09-02T06:51:04.287Z,1340.00
2018-09-02T06:52:04.284Z,1348.00
2018-09-02T06:53:04.245Z,1368.00
2018-09-02T06:54:04.232Z,1376.00
2018-09-02T06:55:04.223Z,1380.00
2018-09-02T06:56:04.210Z,1368.00
2018-09-02T06:57:04.229Z,1352.00
2018-09-02T06:58:04.190Z,1344.00
2018-09-02T06:59:04.177Z,1360.00
2018-09-02T07:00:04.164Z,1376.00
2018-09-02T07:01:04.153Z,1392.00
2018-09-02T07:02:04.166Z,1404.00
2018-09-02T07:03:04.132Z,1424.00
2018-09-02T07:04:04.140Z,1448.00
2018-09-02T07:05:04.109Z,1472.00
2018-09-02T07:06:04.096Z,1508.00
2018-09-02T07:07:04.087Z,1520.00
2018-09-02T07:08:04.073Z,1528.00
2018-09-02T07:09:04.085Z,1532.00
2018-09-02T07:10:04.052Z,1528.00
2018-09-02T07:11:04.040Z,1524.00
2018-09-02T07:12:04.028Z,1540.00
2018-09-02T07:13:04.017Z,1592.00
2018-09-02T07:14:04.022Z,1688.00
2018-09-02T07:15:03.996Z,1784.00
2018-09-02T07:16:03.987Z,1820.00
2018-09-02T07:17:03.974Z,1812.00
2018-09-02T07:18:03.985Z,1796.00
2018-09-02T07:19:03.950Z,1744.00
2018-09-02T07:20:04.037Z,1700.00
2018-09-02T07:21:03.949Z,1740.00
2018-09-02T07:22:03.916Z,2804.00
2018-09-02T07:23:03.904Z,3244.00
2018-09-02T07:24:03.894Z,3252.00
2018-09-02T07:25:03.904Z,3280.00
2018-09-02T07:26:03.870Z,3356.00
2018-09-02T07:27:03.860Z,3404.00
2018-09-02T07:28:03.848Z,3488.00
2018-09-02T07:29:03.850Z,3564.00
2018-09-02T07:30:03.846Z,3584.00
2018-09-02T07:31:03.817Z,3596.00
2018-09-02T07:32:03.812Z,3588.00
2018-09-02T07:33:03.793Z,3580.00
2018-09-02T07:34:03.780Z,3572.00
2018-09-02T07:35:03.798Z,3584.00
2018-09-02T07:36:03.758Z,3624.00
2018-09-02T07:37:03.746Z,3664.00
2018-09-02T07:38:03.736Z,3684.00
2018-09-02T07:39:03.725Z,3704.00
2018-09-02T07:40:03.743Z,3724.00
2018-09-02T07:41:03.701Z,3732.00
2018-09-02T07:42:03.691Z,3740.00
2018-09-02T07:43:03.688Z,3836.00
2018-09-02T07:44:03.704Z,3972.00
2018-09-02T07:45:03.678Z,4140.00
2018-09-02T07:46:03.645Z,4280.00
2018-09-02T07:47:03.639Z,4436.00
2018-09-02T07:48:03.646Z,4556.00
2018-09-02T07:49:03.613Z,4744.00
2018-09-02T07:50:03.600Z,4832.00
2018-09-02T07:51:03.589Z,4884.00
2018-09-02T07:52:03.578Z,4940.00
2018-09-02T07:53:03.589Z,5000.00
2018-09-02T07:54:03.556Z,4984.00
2018-09-02T07:55:03.545Z,5048.00
2018-09-02T07:56:03.532Z,5124.00
2018-09-02T07:57:03.543Z,5208.00
2018-09-02T07:58:03.510Z,5252.00
2018-09-02T07:59:03.500Z,3800.00
2018-09-02T08:00:03.488Z,3424.00
2018-09-02T08:01:03.478Z,3912.00
2018-09-02T08:02:03.487Z,3976.00
2018-09-02T08:03:03.455Z,4788.00
2018-09-02T08:04:03.449Z,5932.00
2018-09-02T08:05:03.433Z,4968.00
2018-09-02T08:06:03.428Z,5216.00
2018-09-02T08:07:03.436Z,6020.00
2018-09-02T08:08:03.420Z,6120.00
2018-09-02T08:09:03.400Z,5836.00
2018-09-02T08:10:03.378Z,6212.00
2018-09-02T08:11:03.364Z,6284.00
2018-09-02T08:12:03.354Z,6140.00
2018-09-02T08:13:03.365Z,5968.00
2018-09-02T08:14:03.330Z,6344.00
2018-09-02T08:15:03.320Z,6256.00
2018-09-02T08:16:03.308Z,4888.00
2018-09-02T08:17:03.298Z,6324.00
2018-09-02T08:18:03.306Z,6264.00
2018-09-02T08:19:03.273Z,6272.00
2018-09-02T08:20:03.263Z,6240.00
2018-09-02T08:21:03.256Z,6204.00
2018-09-02T08:22:03.262Z,6048.00
2018-09-02T08:23:03.254Z,5960.00
2018-09-02T08:24:03.240Z,5868.00
2018-09-02T08:25:03.232Z,5716.00
2018-09-02T08:26:03.196Z,5408.00
2018-09-02T08:27:03.218Z,4784.00
2018-09-02T08:28:03.174Z,3644.00
2018-09-02T08:29:03.163Z,3372.00
2018-09-02T08:30:03.155Z,5380.00
2018-09-02T08:31:03.141Z,2952.00
2018-09-02T08:32:03.156Z,2800.00
2018-09-02T08:33:03.161Z,2920.00
2018-09-02T08:34:03.109Z,2832.00
2018-09-02T08:35:03.136Z,2788.00
2018-09-02T08:36:03.084Z,2676.00
2018-09-02T08:37:03.074Z,2588.00
2018-09-02T08:38:03.061Z,2556.00
2018-09-02T08:39:03.069Z,2720.00
2018-09-02T08:40:03.063Z,2776.00
2018-09-02T08:41:03.061Z,3896.00
2018-09-02T08:42:03.019Z,4824.00
2018-09-02T08:43:03.005Z,3676.00
2018-09-02T08:44:03.050Z,2240.00
2018-09-02T08:45:02.984Z,2096.00
2018-09-02T08:46:02.993Z,2184.00
2018-09-02T08:47:02.961Z,2776.00
2018-09-02T08:48:03.091Z,4296.00
2018-09-02T08:49:02.939Z,4480.00
2018-09-02T08:50:02.927Z,4544.00
2018-09-02T08:51:02.948Z,4800.00
2018-09-02T08:52:02.904Z,4772.00
2018-09-02T08:53:02.893Z,4780.00
2018-09-02T08:54:02.881Z,4776.00
2018-09-02T08:55:02.870Z,4860.00
2018-09-02T08:56:02.968Z,4928.00
2018-09-02T08:57:02.848Z,4088.00
2018-09-02T08:58:02.838Z,2684.00
2018-09-02T08:59:02.826Z,2344.00
2018-09-02T09:00:02.839Z,2020.00
2018-09-02T09:01:02.805Z,1992.00
2018-09-02T09:02:02.813Z,2020.00
2018-09-02T09:03:02.781Z,1972.00
2018-09-02T09:04:02.770Z,2000.00
2018-09-02T09:05:02.758Z,2056.00
2018-09-02T09:06:02.769Z,1968.00
2018-09-02T09:07:02.735Z,2188.00
2018-09-02T09:08:02.841Z,1960.00
2018-09-02T09:09:03.095Z,1936.00
2018-09-02T09:10:02.702Z,1936.00
2018-09-02T09:11:02.732Z,1948.00
2018-09-02T09:12:02.681Z,1992.00
2018-09-02T09:13:02.668Z,2000.00
2018-09-02T09:14:02.677Z,2112.00
2018-09-02T09:15:02.648Z,2060.00
2018-09-02T09:16:02.656Z,2124.00
2018-09-02T09:17:02.707Z,2240.00
2018-09-02T09:18:02.634Z,2276.00
2018-09-02T09:19:02.626Z,2456.00
2018-09-02T09:20:02.597Z,2404.00
2018-09-02T09:21:02.583Z,2488.00
2018-09-02T09:22:02.614Z,2352.00
2018-09-02T09:23:02.577Z,2280.00
2018-09-02T09:24:02.601Z,2296.00
2018-09-02T09:25:02.549Z,2452.00
2018-09-02T09:26:02.546Z,2488.00
2018-09-02T09:27:02.511Z,2572.00
2018-09-02T09:28:02.521Z,2572.00
2018-09-02T09:29:02.495Z,2396.00
2018-09-02T09:30:02.481Z,2356.00
2018-09-02T09:31:02.468Z,2388.00
2018-09-02T09:32:02.456Z,2536.00
2018-09-02T09:33:02.469Z,2664.00
2018-09-02T09:34:02.432Z,2744.00
2018-09-02T09:35:02.420Z,2860.00
2018-09-02T09:36:02.410Z,2996.00
2018-09-02T09:37:02.397Z,3020.00
2018-09-02T09:38:02.408Z,3068.00
2018-09-02T09:39:02.375Z,3128.00
2018-09-02T09:40:02.364Z,3032.00
2018-09-02T09:41:02.357Z,2968.00
2018-09-02T09:42:02.366Z,2968.00
2018-09-02T09:43:02.330Z,2908.00
2018-09-02T09:44:02.350Z,2920.00
2018-09-02T09:45:02.308Z,2916.00
2018-09-02T09:46:02.310Z,2928.00
2018-09-02T09:47:02.287Z,2964.00
2018-09-02T09:48:02.279Z,3060.00
2018-09-02T09:49:02.286Z,3056.00
2018-09-02T09:50:02.252Z,3008.00
2018-09-02T09:51:02.243Z,2936.00
2018-09-02T09:52:02.236Z,2912.00
2018-09-02T09:53:02.241Z,2884.00
2018-09-02T09:54:02.209Z,2940.00
2018-09-02T09:55:02.198Z,2960.00
2018-09-02T09:56:02.188Z,3104.00
2018-09-02T09:57:02.209Z,3344.00
2018-09-02T09:58:02.189Z,3552.00
2018-09-02T09:59:02.180Z,3784.00
2018-09-02T10:00:02.164Z,3932.00
2018-09-02T10:01:02.133Z,4156.00
2018-09-02T10:02:02.122Z,4296.00
2018-09-02T10:03:02.125Z,4384.00
2018-09-02T10:04:02.100Z,4424.00
2018-09-02T10:05:02.110Z,4404.00
2018-09-02T10:06:02.105Z,4292.00
2018-09-02T10:07:02.087Z,4184.00
2018-09-02T10:08:02.056Z,4228.00
2018-09-02T10:09:02.066Z,4228.00
2018-09-02T10:10:02.043Z,4160.00
2018-09-02T10:11:02.024Z,4060.00
2018-09-02T10:12:02.014Z,3980.00
2018-09-02T10:13:02.004Z,3944.00
2018-09-02T10:14:02.008Z,3956.00
2018-09-02T10:15:02.002Z,4052.00
2018-09-02T10:16:01.992Z,4140.00
2018-09-02T10:17:01.962Z,4200.00
2018-09-02T10:18:02.024Z,4296.00
2018-09-02T10:19:01.936Z,5336.00
2018-09-02T10:20:01.928Z,4908.00
2018-09-02T10:21:01.915Z,4044.00
2018-09-02T10:22:01.905Z,3932.00
2018-09-02T10:23:01.915Z,3952.00
2018-09-02T10:24:01.882Z,3988.00
2018-09-02T10:25:01.903Z,3988.00
2018-09-02T10:26:01.862Z,4032.00
2018-09-02T10:27:01.857Z,4076.00
2018-09-02T10:28:01.839Z,4188.00
2018-09-02T10:29:01.849Z,4324.00
2018-09-02T10:30:01.823Z,4488.00
2018-09-02T10:31:01.805Z,4580.00
2018-09-02T10:32:01.794Z,4596.00
2018-09-02T10:33:01.839Z,4572.00
2018-09-02T10:34:01.793Z,4476.00
2018-09-02T10:35:01.788Z,4316.00
2018-09-02T10:36:01.756Z,4192.00
2018-09-02T10:37:01.741Z,4036.00
2018-09-02T10:38:01.727Z,3868.00
2018-09-02T10:39:01.715Z,3760.00
2018-09-02T10:40:01.725Z,3668.00
2018-09-02T10:41:01.856Z,3616.00
2018-09-02T10:42:01.680Z,3544.00
2018-09-02T10:43:01.671Z,3480.00
2018-09-02T10:44:01.661Z,3404.00
2018-09-02T10:45:01.671Z,3284.00
2018-09-02T10:46:01.683Z,3156.00
2018-09-02T10:47:01.626Z,3036.00
2018-09-02T10:48:01.638Z,2892.00
2018-09-02T10:49:01.605Z,2728.00
2018-09-02T10:50:01.596Z,2580.00
2018-09-02T10:51:01.604Z,2440.00
2018-09-02T10:52:01.571Z,2292.00
2018-09-02T10:53:01.561Z,2152.00
2018-09-02T10:54:01.552Z,2024.00
2018-09-02T10:55:02.027Z,1888.00
2018-09-02T10:56:01.536Z,1788.00
2018-09-02T10:57:01.515Z,1736.00
2018-09-02T10:58:01.504Z,1688.00
2018-09-02T10:59:01.494Z,1656.00
2018-09-02T11:00:01.509Z,1628.00
2018-09-02T11:01:01.483Z,1624.00
2018-09-02T11:02:01.462Z,1628.00
2018-09-02T11:03:01.455Z,1644.00
2018-09-02T11:04:01.460Z,1652.00
2018-09-02T11:05:01.451Z,1688.00
2018-09-02T11:06:01.435Z,1736.00
2018-09-02T11:07:01.403Z,1776.00
2018-09-02T11:08:01.414Z,1804.00
2018-09-02T11:09:01.380Z,1804.00
2018-09-02T11:10:01.370Z,1796.00
2018-09-02T11:11:01.379Z,1784.00
2018-09-02T11:12:01.351Z,1736.00
2018-09-02T11:13:01.368Z,1680.00
2018-09-02T11:14:01.420Z,1612.00
2018-09-02T11:15:01.335Z,1488.00
2018-09-02T11:16:01.304Z,1364.00
2018-09-02T11:17:01.312Z,1236.00
2018-09-02T11:18:01.280Z,1128.00
2018-09-02T11:19:01.274Z,1056.00
2018-09-02T11:20:01.279Z,1016.00
2018-09-02T11:21:01.248Z,1008.00
2018-09-02T11:22:01.258Z,988.00
2018-09-02T11:23:01.245Z,980.00
2018-09-02T11:24:01.211Z,976.00
2018-09-02T11:25:01.226Z,976.00
2018-09-02T11:26:01.191Z,972.00
2018-09-02T11:27:01.179Z,960.00
2018-09-02T11:28:01.190Z,948.00
2018-09-02T11:29:01.157Z,960.00
2018-09-02T11:30:01.151Z,916.00
2018-09-02T11:31:01.138Z,900.00
2018-09-02T11:32:01.123Z,904.00
2018-09-02T11:33:01.134Z,916.00
2018-09-02T11:34:01.112Z,932.00
2018-09-02T11:35:01.109Z,952.00
2018-09-02T11:36:01.078Z,992.00
2018-09-02T11:37:01.069Z,1048.00
2018-09-02T11:38:01.055Z,1120.00
2018-09-02T11:39:01.084Z,1172.00
2018-09-02T11:40:01.035Z,1212.00
2018-09-02T11:41:01.022Z,1256.00
2018-09-02T11:42:01.010Z,1288.00
2018-09-02T11:43:01.023Z,1308.00
2018-09-02T11:44:00.989Z,1324.00
2018-09-02T11:45:00.994Z,1308.00
2018-09-02T11:46:00.966Z,1296.00
2018-09-02T11:47:01.121Z,1228.00
2018-09-02T11:48:00.965Z,1180.00
2018-09-02T11:49:00.932Z,1144.00
2018-09-02T11:50:00.921Z,1132.00
2018-09-02T11:51:00.909Z,1120.00
2018-09-02T11:52:00.900Z,1124.00
2018-09-02T11:53:00.918Z,1132.00
2018-09-02T11:54:00.874Z,1152.00
2018-09-02T11:55:00.864Z,1192.00
2018-09-02T11:56:00.855Z,1204.00
2018-09-02T11:57:00.841Z,1224.00
2018-09-02T11:58:00.868Z,1280.00
2018-09-02T11:59:00.822Z,1336.00
2018-09-02T12:00:00.810Z,1356.00
2018-09-02T12:01:00.826Z,1336.00
2018-09-02T12:02:00.786Z,1312.00
2018-09-02T12:03:00.774Z,1352.00
2018-09-02T12:04:00.799Z,1416.00
2018-09-02T12:05:00.752Z,1488.00
2018-09-02T12:06:00.764Z,1572.00
2018-09-02T12:07:00.731Z,1688.00
2018-09-02T12:08:00.720Z,1816.00
2018-09-02T12:09:00.716Z,1964.00
2018-09-02T12:10:00.696Z,2136.00
2018-09-02T12:11:00.707Z,2288.00
2018-09-02T12:12:00.676Z,2404.00
2018-09-02T12:13:00.662Z,2508.00
2018-09-02T12:14:00.687Z,2588.00
2018-09-02T12:15:00.661Z,2584.00
2018-09-02T12:16:00.630Z,2552.00
2018-09-02T12:17:00.654Z,2652.00
2018-09-02T12:18:00.605Z,2728.00
2018-09-02T12:19:00.598Z,2724.00
2018-09-02T12:20:00.583Z,2716.00
2018-09-02T12:21:00.598Z,2644.00
2018-09-02T12:22:00.562Z,2552.00
2018-09-02T12:23:00.556Z,2472.00
2018-09-02T12:24:00.541Z,2460.00
2018-09-02T12:25:00.565Z,2536.00
2018-09-02T12:26:00.515Z,2612.00
2018-09-02T12:27:00.528Z,2632.00
2018-09-02T12:28:00.496Z,2652.00
2018-09-02T12:29:00.486Z,2668.00
2018-09-02T12:30:00.471Z,2728.00
2018-09-02T12:31:00.477Z,2632.00
2018-09-02T12:32:00.490Z,2408.00